DAON

Zenata – Messali El Hadj Airport

Tlemcen, Algeria
METAR DAON 252200Z 00000KT CAVOK 16/10 Q1015
Observed Flight Rules
May-25 @ 22:00 UTC (27 minutes ago) Visual Flight Rules
Visibility Clouds
10,000+ meters
  • Clear skies
Temperatures Readings
Current 16°C / 61°F
Dewpoint 10°C / 50°F
Humidity 68%
Altimeter 29.97" Hg
Pressure 1015 hPa
Elevation 247
METAR DAON 252200Z 00000KT CAVOK 16/10 Q1015
Observed Flight Rules
May-25 @ 22:00 UTC
(27 minutes ago)
VFR
Clouds
  • Clear skies
Temperature Dewpoint
16°C / 61°F 10°C / 50°F
Humidity Altimeter Pressure
68% 29.97" Hg 1015 hPa